sensor_id;sensor_type;location;lat;lon;timestamp;pressure;altitude;pressure_sealevel;temperature;humidity
52319;BME280;38258;51.148;14.068;2024-02-21T00:00:23;98970.00;;;5.08;100.00
52319;BME280;38258;51.148;14.068;2024-02-21T00:02:50;98970.91;;;5.11;100.00
52319;BME280;38258;51.148;14.068;2024-02-21T00:05:17;98958.78;;;5.16;100.00
52319;BME280;38258;51.148;14.068;2024-02-21T00:07:43;98961.38;;;5.16;100.00
52319;BME280;38258;51.148;14.068;2024-02-21T00:10:10;98957.03;;;5.16;100.00
52319;BME280;38258;51.148;14.068;2024-02-21T00:12:38;98944.13;;;5.22;100.00
52319;BME280;38258;51.148;14.068;2024-02-21T00:15:05;98944.09;;;5.21;100.00
52319;BME280;38258;51.148;14.068;2024-02-21T00:17:32;98950.16;;;5.17;100.00
52319;BME280;38258;51.148;14.068;2024-02-21T00:19:59;98944.97;;;5.21;100.00
52319;BME280;38258;51.148;14.068;2024-02-21T00:22:25;98942.38;;;5.21;100.00
52319;BME280;38258;51.148;14.068;2024-02-21T00:24:54;98938.94;;;5.26;100.00
52319;BME280;38258;51.148;14.068;2024-02-21T00:27:20;98942.38;;;5.24;100.00
52319;BME280;38258;51.148;14.068;2024-02-21T00:29:49;98932.03;;;5.26;100.00
52319;BME280;38258;51.148;14.068;2024-02-21T00:32:15;98925.09;;;5.31;100.00
52319;BME280;38258;51.148;14.068;2024-02-21T00:34:42;98927.69;;;5.37;100.00
52319;BME280;38258;51.148;14.068;2024-02-21T00:37:09;98914.75;;;5.36;100.00
52319;BME280;38258;51.148;14.068;2024-02-21T00:39:35;98916.47;;;5.32;100.00
52319;BME280;38258;51.148;14.068;2024-02-21T00:42:03;98915.59;;;5.29;100.00
52319;BME280;38258;51.148;14.068;2024-02-21T00:44:29;98921.66;;;5.26;100.00
52319;BME280;38258;51.148;14.068;2024-02-21T00:46:57;98914.72;;;5.34;100.00
52319;BME280;38258;51.148;14.068;2024-02-21T00:49:24;98901.78;;;5.36;100.00
52319;BME280;38258;51.148;14.068;2024-02-21T00:51:51;98906.94;;;5.34;100.00
52319;BME280;38258;51.148;14.068;2024-02-21T00:54:17;98899.19;;;5.36;100.00
52319;BME280;38258;51.148;14.068;2024-02-21T00:56:44;98902.63;;;5.33;100.00
52319;BME280;38258;51.148;14.068;2024-02-21T00:59:10;98900.91;;;5.40;100.00
52319;BME280;38258;51.148;14.068;2024-02-21T01:01:37;98893.13;;;5.35;100.00
52319;BME280;38258;51.148;14.068;2024-02-21T01:04:09;98890.53;;;5.32;100.00
52319;BME280;38258;51.148;14.068;2024-02-21T01:06:35;98887.09;;;5.40;100.00
52319;BME280;38258;51.148;14.068;2024-02-21T01:09:02;98885.34;;;5.37;100.00
52319;BME280;38258;51.148;14.068;2024-02-21T01:11:29;98884.47;;;5.41;100.00
52319;BME280;38258;51.148;14.068;2024-02-21T01:13:55;98884.50;;;5.40;100.00
52319;BME280;38258;51.148;14.068;2024-02-21T01:16:23;98876.69;;;5.36;100.00
52319;BME280;38258;51.148;14.068;2024-02-21T01:18:49;98878.44;;;5.44;100.00
52319;BME280;38258;51.148;14.068;2024-02-21T01:21:17;98879.28;;;5.36;100.00
52319;BME280;38258;51.148;14.068;2024-02-21T01:23:44;98866.31;;;5.38;100.00
52319;BME280;38258;51.148;14.068;2024-02-21T01:26:11;98871.50;;;5.38;100.00
52319;BME280;38258;51.148;14.068;2024-02-21T01:28:40;98860.25;;;5.37;100.00
52319;BME280;38258;51.148;14.068;2024-02-21T01:31:06;98857.69;;;5.41;100.00
52319;BME280;38258;51.148;14.068;2024-02-21T01:33:33;98861.97;;;5.43;100.00
52319;BME280;38258;51.148;14.068;2024-02-21T01:36:01;98862.00;;;5.42;100.00
52319;BME280;38258;51.148;14.068;2024-02-21T01:38:29;98845.56;;;5.43;100.00
52319;BME280;38258;51.148;14.068;2024-02-21T01:40:57;98856.81;;;5.46;100.00
52319;BME280;38258;51.148;14.068;2024-02-21T01:43:24;98842.97;;;5.46;100.00
52319;BME280;38258;51.148;14.068;2024-02-21T01:45:52;98844.72;;;5.41;100.00
52319;BME280;38258;51.148;14.068;2024-02-21T01:48:19;98847.31;;;5.41;100.00
52319;BME280;38258;51.148;14.068;2024-02-21T01:50:46;98836.06;;;5.42;100.00
52319;BME280;38258;51.148;14.068;2024-02-21T01:53:13;98832.59;;;5.32;100.00
52319;BME280;38258;51.148;14.068;2024-02-21T01:55:45;98830.00;;;5.33;100.00
52319;BME280;38258;51.148;14.068;2024-02-21T01:58:13;98824.81;;;5.27;100.00
52319;BME280;38258;51.148;14.068;2024-02-21T02:00:40;98816.16;;;5.31;100.00
52319;BME280;38258;51.148;14.068;2024-02-21T02:03:09;98817.00;;;5.36;100.00
52319;BME280;38258;51.148;14.068;2024-02-21T02:05:43;98812.72;;;5.34;100.00
52319;BME280;38258;51.148;14.068;2024-02-21T02:08:09;98811.84;;;5.29;100.00
52319;BME280;38258;51.148;14.068;2024-02-21T02:10:36;98806.66;;;5.35;100.00
52319;BME280;38258;51.148;14.068;2024-02-21T02:13:05;98802.34;;;5.26;100.00
52319;BME280;38258;51.148;14.068;2024-02-21T02:15:37;98798.00;;;5.28;100.00
52319;BME280;38258;51.148;14.068;2024-02-21T02:18:04;98798.88;;;5.33;100.00
52319;BME280;38258;51.148;14.068;2024-02-21T02:20:31;98791.09;;;5.19;100.00
52319;BME280;38258;51.148;14.068;2024-02-21T02:22:59;98791.09;;;5.18;100.00
52319;BME280;38258;51.148;14.068;2024-02-21T02:25:27;98796.28;;;5.21;100.00
52319;BME280;38258;51.148;14.068;2024-02-21T02:27:53;98789.34;;;5.23;100.00
52319;BME280;38258;51.148;14.068;2024-02-21T02:30:20;98790.25;;;5.20;100.00
52319;BME280;38258;51.148;14.068;2024-02-21T02:32:47;98791.09;;;5.29;100.00
52319;BME280;38258;51.148;14.068;2024-02-21T02:35:14;98798.00;;;5.27;100.00
52319;BME280;38258;51.148;14.068;2024-02-21T02:37:47;98798.00;;;5.22;100.00
52319;BME280;38258;51.148;14.068;2024-02-21T02:40:14;98791.09;;;5.18;100.00
52319;BME280;38258;51.148;14.068;2024-02-21T02:42:42;98792.81;;;5.31;100.00
52319;BME280;38258;51.148;14.068;2024-02-21T02:45:09;98790.22;;;5.30;100.00
52319;BME280;38258;51.148;14.068;2024-02-21T02:47:36;98791.94;;;5.32;100.00
52319;BME280;38258;51.148;14.068;2024-02-21T02:50:03;98785.91;;;5.33;100.00
52319;BME280;38258;51.148;14.068;2024-02-21T02:52:30;98785.06;;;5.33;100.00
52319;BME280;38258;51.148;14.068;2024-02-21T02:54:56;98783.31;;;5.33;100.00
52319;BME280;38258;51.148;14.068;2024-02-21T02:57:23;98780.72;;;5.32;100.00
52319;BME280;38258;51.148;14.068;2024-02-21T02:59:51;98776.38;;;5.37;100.00
52319;BME280;38258;51.148;14.068;2024-02-21T03:02:18;98772.06;;;5.31;100.00
52319;BME280;38258;51.148;14.068;2024-02-21T03:04:44;98777.25;;;5.28;100.00
52319;BME280;38258;51.148;14.068;2024-02-21T03:07:11;98777.25;;;5.30;100.00
52319;BME280;38258;51.148;14.068;2024-02-21T03:09:38;98778.13;;;5.27;100.00
52319;BME280;38258;51.148;14.068;2024-02-21T03:12:06;98777.25;;;5.16;100.00
52319;BME280;38258;51.148;14.068;2024-02-21T03:14:32;98773.81;;;5.21;100.00
52319;BME280;38258;51.148;14.068;2024-02-21T03:17:01;98768.63;;;5.21;100.00
52319;BME280;38258;51.148;14.068;2024-02-21T03:19:28;98767.75;;;5.21;100.00
52319;BME280;38258;51.148;14.068;2024-02-21T03:21:55;98768.63;;;5.17;100.00
52319;BME280;38258;51.148;14.068;2024-02-21T03:24:22;98765.16;;;5.18;100.00
52319;BME280;38258;51.148;14.068;2024-02-21T03:26:48;98770.34;;;5.18;100.00
52319;BME280;38258;51.148;14.068;2024-02-21T03:29:16;98751.31;;;5.19;100.00
52319;BME280;38258;51.148;14.068;2024-02-21T03:31:43;98761.69;;;5.11;100.00
52319;BME280;38258;51.148;14.068;2024-02-21T03:34:11;98762.56;;;5.08;100.00
52319;BME280;38258;51.148;14.068;2024-02-21T03:36:38;98766.03;;;5.01;100.00
52319;BME280;38258;51.148;14.068;2024-02-21T03:39:04;98760.84;;;5.00;100.00
52319;BME280;38258;51.148;14.068;2024-02-21T03:41:33;98760.84;;;5.06;100.00
52319;BME280;38258;51.148;14.068;2024-02-21T03:43:59;98756.53;;;5.05;100.00
52319;BME280;38258;51.148;14.068;2024-02-21T03:46:26;98755.66;;;5.07;100.00
52319;BME280;38258;51.148;14.068;2024-02-21T03:48:53;98752.22;;;5.07;100.00
52319;BME280;38258;51.148;14.068;2024-02-21T03:51:21;98747.88;;;5.04;100.00
52319;BME280;38258;51.148;14.068;2024-02-21T03:53:48;98752.22;;;5.12;100.00
52319;BME280;38258;51.148;14.068;2024-02-21T03:56:14;98753.06;;;5.14;100.00
52319;BME280;38258;51.148;14.068;2024-02-21T03:58:41;98752.19;;;5.13;100.00
52319;BME280;38258;51.148;14.068;2024-02-21T04:01:08;98747.00;;;5.18;100.00
52319;BME280;38258;51.148;14.068;2024-02-21T04:03:35;98747.00;;;5.22;100.00
52319;BME280;38258;51.148;14.068;2024-02-21T04:06:01;98740.97;;;5.20;100.00
52319;BME280;38258;51.148;14.068;2024-02-21T04:08:29;98743.53;;;5.22;100.00
52319;BME280;38258;51.148;14.068;2024-02-21T04:10:56;98740.94;;;5.22;100.00
52319;BME280;38258;51.148;14.068;2024-02-21T04:13:22;98734.03;;;5.30;100.00
52319;BME280;38258;51.148;14.068;2024-02-21T04:15:49;98740.09;;;5.18;100.00
52319;BME280;38258;51.148;14.068;2024-02-21T04:18:16;98740.09;;;5.12;100.00
52319;BME280;38258;51.148;14.068;2024-02-21T04:20:42;98734.91;;;5.15;100.00
52319;BME280;38258;51.148;14.068;2024-02-21T04:23:09;98732.31;;;5.14;100.00
52319;BME280;38258;51.148;14.068;2024-02-21T04:25:37;98718.50;;;5.12;100.00
52319;BME280;38258;51.148;14.068;2024-02-21T04:28:04;98730.59;;;5.16;100.00
52319;BME280;38258;51.148;14.068;2024-02-21T04:30:31;98721.06;;;5.16;100.00
52319;BME280;38258;51.148;14.068;2024-02-21T04:32:58;98727.97;;;5.19;100.00
52319;BME280;38258;51.148;14.068;2024-02-21T04:35:24;98719.34;;;5.18;100.00
52319;BME280;38258;51.148;14.068;2024-02-21T04:37:51;98726.25;;;5.22;100.00
52319;BME280;38258;51.148;14.068;2024-02-21T04:40:17;98715.88;;;5.22;100.00
52319;BME280;38258;51.148;14.068;2024-02-21T04:42:46;98713.28;;;5.22;100.00
52319;BME280;38258;51.148;14.068;2024-02-21T04:45:13;98718.47;;;5.21;100.00
52319;BME280;38258;51.148;14.068;2024-02-21T04:47:40;98725.38;;;5.28;100.00
52319;BME280;38258;51.148;14.068;2024-02-21T04:50:07;98727.97;;;5.28;100.00
52319;BME280;38258;51.148;14.068;2024-02-21T04:52:37;98720.19;;;5.22;100.00
52319;BME280;38258;51.148;14.068;2024-02-21T04:55:07;98717.63;;;5.20;100.00
52319;BME280;38258;51.148;14.068;2024-02-21T04:57:33;98715.91;;;5.19;100.00
52319;BME280;38258;51.148;14.068;2024-02-21T05:00:02;98722.78;;;5.22;100.00
52319;BME280;38258;51.148;14.068;2024-02-21T05:02:29;98717.59;;;5.22;100.00
52319;BME280;38258;51.148;14.068;2024-02-21T05:04:56;98720.19;;;5.14;100.00
52319;BME280;38258;51.148;14.068;2024-02-21T05:07:22;98711.56;;;5.07;100.00
52319;BME280;38258;51.148;14.068;2024-02-21T05:09:49;98703.81;;;5.09;100.00
52319;BME280;38258;51.148;14.068;2024-02-21T05:12:15;98704.69;;;5.05;100.00
52319;BME280;38258;51.148;14.068;2024-02-21T05:14:42;98702.06;;;5.02;100.00
52319;BME280;38258;51.148;14.068;2024-02-21T05:17:10;98699.50;;;5.00;100.00
52319;BME280;38258;51.148;14.068;2024-02-21T05:19:37;98692.56;;;5.01;100.00
52319;BME280;38258;51.148;14.068;2024-02-21T05:22:04;98696.88;;;4.99;100.00
52319;BME280;38258;51.148;14.068;2024-02-21T05:24:30;98702.91;;;5.08;100.00
52319;BME280;38258;51.148;14.068;2024-02-21T05:26:57;98699.47;;;5.08;100.00
52319;BME280;38258;51.148;14.068;2024-02-21T05:29:24;98706.38;;;5.15;100.00
52319;BME280;38258;51.148;14.068;2024-02-21T05:31:57;98704.66;;;5.19;100.00
52319;BME280;38258;51.148;14.068;2024-02-21T05:34:26;98696.88;;;5.19;100.00
52319;BME280;38258;51.148;14.068;2024-02-21T05:36:52;98695.13;;;5.26;100.00
52319;BME280;38258;51.148;14.068;2024-02-21T05:39:19;98687.34;;;5.26;100.00
52319;BME280;38258;51.148;14.068;2024-02-21T05:41:48;98682.16;;;5.21;100.00
52319;BME280;38258;51.148;14.068;2024-02-21T05:44:15;98687.34;;;5.32;100.00
52319;BME280;38258;51.148;14.068;2024-02-21T05:46:42;98679.56;;;5.21;100.00
52319;BME280;38258;51.148;14.068;2024-02-21T05:49:09;98677.84;;;5.34;100.00
52319;BME280;38258;51.148;14.068;2024-02-21T05:51:37;98671.78;;;5.27;100.00
52319;BME280;38258;51.148;14.068;2024-02-21T05:54:03;98677.81;;;5.35;100.00
52319;BME280;38258;51.148;14.068;2024-02-21T05:56:30;98667.47;;;5.34;100.00
52319;BME280;38258;51.148;14.068;2024-02-21T05:58:56;98663.13;;;5.33;100.00
52319;BME280;38258;51.148;14.068;2024-02-21T06:01:23;98662.22;;;5.40;100.00
52319;BME280;38258;51.148;14.068;2024-02-21T06:03:50;98660.53;;;5.41;100.00
52319;BME280;38258;51.148;14.068;2024-02-21T06:06:16;98662.25;;;5.42;100.00
52319;BME280;38258;51.148;14.068;2024-02-21T06:08:44;98655.28;;;5.47;100.00
52319;BME280;38258;51.148;14.068;2024-02-21T06:11:11;98655.34;;;5.41;100.00
52319;BME280;38258;51.148;14.068;2024-02-21T06:13:38;98657.88;;;5.50;100.00
52319;BME280;38258;51.148;14.068;2024-02-21T06:16:06;98651.84;;;5.40;100.00
52319;BME280;38258;51.148;14.068;2024-02-21T06:18:35;98644.09;;;5.42;100.00
52319;BME280;38258;51.148;14.068;2024-02-21T06:21:02;98636.28;;;5.46;100.00
52319;BME280;38258;51.148;14.068;2024-02-21T06:23:29;98646.66;;;5.49;100.00
52319;BME280;38258;51.148;14.068;2024-02-21T06:26:00;98640.56;;;5.58;100.00
52319;BME280;38258;51.148;14.068;2024-02-21T06:28:27;98626.75;;;5.48;100.00
52319;BME280;38258;51.148;14.068;2024-02-21T06:30:54;98630.22;;;5.49;100.00
52319;BME280;38258;51.148;14.068;2024-02-21T06:33:21;98630.19;;;5.60;100.00
52319;BME280;38258;51.148;14.068;2024-02-21T06:35:50;98627.63;;;5.50;100.00
52319;BME280;38258;51.148;14.068;2024-02-21T06:38:18;98624.16;;;5.47;100.00
52319;BME280;38258;51.148;14.068;2024-02-21T06:40:45;98624.16;;;5.48;100.00
52319;BME280;38258;51.148;14.068;2024-02-21T06:43:18;98627.59;;;5.49;100.00
52319;BME280;38258;51.148;14.068;2024-02-21T06:45:45;98631.06;;;5.57;100.00
52319;BME280;38258;51.148;14.068;2024-02-21T06:48:16;98623.28;;;5.52;100.00
52319;BME280;38258;51.148;14.068;2024-02-21T06:50:43;98631.03;;;5.59;100.00
52319;BME280;38258;51.148;14.068;2024-02-21T06:53:10;98626.72;;;5.58;100.00
52319;BME280;38258;51.148;14.068;2024-02-21T06:55:37;98640.53;;;5.64;100.00
52319;BME280;38258;51.148;14.068;2024-02-21T06:58:04;98638.78;;;5.66;100.00
52319;BME280;38258;51.148;14.068;2024-02-21T07:00:35;98637.13;;;5.51;100.00
52319;BME280;38258;51.148;14.068;2024-02-21T07:03:02;98626.72;;;5.58;100.00
52319;BME280;38258;51.148;14.068;2024-02-21T07:05:29;98631.91;;;5.59;100.00
52319;BME280;38258;51.148;14.068;2024-02-21T07:07:55;98646.59;;;5.65;100.00
52319;BME280;38258;51.148;14.068;2024-02-21T07:10:22;98643.13;;;5.68;100.00
52319;BME280;38258;51.148;14.068;2024-02-21T07:12:49;98645.69;;;5.74;100.00
52319;BME280;38258;51.148;14.068;2024-02-21T07:15:17;98642.25;;;5.69;100.00
52319;BME280;38258;51.148;14.068;2024-02-21T07:17:45;98636.22;;;5.60;100.00
52319;BME280;38258;51.148;14.068;2024-02-21T07:20:12;98632.78;;;5.60;100.00
52319;BME280;38258;51.148;14.068;2024-02-21T07:22:39;98632.75;;;5.61;100.00
52319;BME280;38258;51.148;14.068;2024-02-21T07:25:06;98632.75;;;5.66;100.00
52319;BME280;38258;51.148;14.068;2024-02-21T07:30:18;98635.31;;;5.64;100.00
52319;BME280;38258;51.148;14.068;2024-02-21T07:32:49;98623.19;;;5.73;100.00
52319;BME280;38258;51.148;14.068;2024-02-21T07:35:16;98627.56;;;5.68;100.00
52319;BME280;38258;51.148;14.068;2024-02-21T07:37:43;98629.25;;;5.76;100.00
52319;BME280;38258;51.148;14.068;2024-02-21T07:40:12;98638.72;;;5.84;100.00
52319;BME280;38258;51.148;14.068;2024-02-21T07:42:39;98641.28;;;5.88;100.00
52319;BME280;38258;51.148;14.068;2024-02-21T07:45:07;98644.75;;;5.87;100.00
52319;BME280;38258;51.148;14.068;2024-02-21T07:47:34;98624.00;;;5.84;100.00
52319;BME280;38258;51.148;14.068;2024-02-21T07:50:02;98618.84;;;5.75;100.00
52319;BME280;38258;51.148;14.068;2024-02-21T07:52:29;98618.00;;;5.74;100.00
52319;BME280;38258;51.148;14.068;2024-02-21T07:54:56;98618.84;;;5.78;100.00
52319;BME280;38258;51.148;14.068;2024-02-21T07:57:23;98617.03;;;5.96;100.00
52319;BME280;38258;51.148;14.068;2024-02-21T07:59:50;98620.34;;;6.21;100.00
52319;BME280;38258;51.148;14.068;2024-02-21T08:02:17;98600.44;;;6.18;100.00
52319;BME280;38258;51.148;14.068;2024-02-21T08:04:43;98625.28;;;6.57;100.00
52319;BME280;38258;51.148;14.068;2024-02-21T08:07:11;98631.34;;;6.53;100.00
52319;BME280;38258;51.148;14.068;2024-02-21T08:09:39;98631.31;;;6.57;100.00
52319;BME280;38258;51.148;14.068;2024-02-21T08:12:06;98633.94;;;6.54;100.00
52319;BME280;38258;51.148;14.068;2024-02-21T08:14:33;98630.44;;;6.61;100.00
52319;BME280;38258;51.148;14.068;2024-02-21T08:17:00;98623.47;;;6.68;100.00
52319;BME280;38258;51.148;14.068;2024-02-21T08:19:26;98620.75;;;6.77;100.00
52319;BME280;38258;51.148;14.068;2024-02-21T08:21:53;98626.88;;;6.75;100.00
52319;BME280;38258;51.148;14.068;2024-02-21T08:24:21;98622.47;;;6.82;100.00
52319;BME280;38258;51.148;14.068;2024-02-21T08:26:48;98616.25;;;6.97;100.00
52319;BME280;38258;51.148;14.068;2024-02-21T08:29:15;98614.66;;;6.78;100.00
52319;BME280;38258;51.148;14.068;2024-02-21T08:31:42;98615.41;;;6.93;100.00
52319;BME280;38258;51.148;14.068;2024-02-21T08:34:08;98628.28;;;7.05;100.00
52319;BME280;38258;51.148;14.068;2024-02-21T08:36:36;98609.31;;;6.94;100.00
52319;BME280;38258;51.148;14.068;2024-02-21T08:39:03;98622.56;;;6.66;100.00
52319;BME280;38258;51.148;14.068;2024-02-21T08:41:32;98619.94;;;6.71;100.00
52319;BME280;38258;51.148;14.068;2024-02-21T08:43:59;98622.66;;;6.61;100.00
52319;BME280;38258;51.148;14.068;2024-02-21T08:46:26;98623.41;;;6.71;100.00
52319;BME280;38258;51.148;14.068;2024-02-21T08:48:53;98616.47;;;6.72;100.00
52319;BME280;38258;51.148;14.068;2024-02-21T08:51:20;98619.16;;;6.61;100.00
52319;BME280;38258;51.148;14.068;2024-02-21T08:53:47;98614.97;;;6.43;100.00
52319;BME280;38258;51.148;14.068;2024-02-21T08:56:14;98620.97;;;6.53;100.00
52319;BME280;38258;51.148;14.068;2024-02-21T08:58:43;98629.72;;;6.42;100.00
52319;BME280;38258;51.148;14.068;2024-02-21T09:01:10;98618.31;;;6.60;100.00
52319;BME280;38258;51.148;14.068;2024-02-21T09:03:37;98623.63;;;6.48;100.00
52319;BME280;38258;51.148;14.068;2024-02-21T09:06:04;98626.13;;;6.60;100.00
52319;BME280;38258;51.148;14.068;2024-02-21T09:08:31;98614.94;;;6.49;100.00
52319;BME280;38258;51.148;14.068;2024-02-21T09:10:59;98606.22;;;6.58;100.00
52319;BME280;38258;51.148;14.068;2024-02-21T09:13:26;98615.00;;;6.38;100.00
52319;BME280;38258;51.148;14.068;2024-02-21T09:15:54;98601.22;;;6.30;100.00
52319;BME280;38258;51.148;14.068;2024-02-21T09:18:21;98595.94;;;6.42;100.00
52319;BME280;38258;51.148;14.068;2024-02-21T09:20:48;98596.75;;;6.49;100.00
52319;BME280;38258;51.148;14.068;2024-02-21T09:23:15;98591.41;;;6.64;100.00
52319;BME280;38258;51.148;14.068;2024-02-21T09:25:42;98593.09;;;6.69;100.00
52319;BME280;38258;51.148;14.068;2024-02-21T09:28:08;98589.72;;;6.60;100.00
52319;BME280;38258;51.148;14.068;2024-02-21T09:30:35;98592.34;;;6.59;100.00
52319;BME280;38258;51.148;14.068;2024-02-21T09:33:04;98592.25;;;6.67;100.00
52319;BME280;38258;51.148;14.068;2024-02-21T09:35:32;98600.06;;;6.68;100.00
52319;BME280;38258;51.148;14.068;2024-02-21T09:37:59;98596.66;;;6.61;100.00
52319;BME280;38258;51.148;14.068;2024-02-21T09:40:27;98601.75;;;6.72;100.00
52319;BME280;38258;51.148;14.068;2024-02-21T09:43:01;98607.78;;;6.76;100.00
52319;BME280;38258;51.148;14.068;2024-02-21T09:45:29;98620.88;;;6.62;100.00
52319;BME280;38258;51.148;14.068;2024-02-21T09:48:06;98615.69;;;6.62;100.00
52319;BME280;38258;51.148;14.068;2024-02-21T09:50:38;98626.03;;;6.70;100.00
52319;BME280;38258;51.148;14.068;2024-02-21T09:53:06;98616.44;;;6.78;100.00
52319;BME280;38258;51.148;14.068;2024-02-21T09:55:33;98617.44;;;6.60;100.00
52319;BME280;38258;51.148;14.068;2024-02-21T09:58:01;98622.66;;;6.60;100.00
52319;BME280;38258;51.148;14.068;2024-02-21T10:00:28;98619.13;;;6.64;100.00
52319;BME280;38258;51.148;14.068;2024-02-21T10:02:55;98605.19;;;6.76;100.00
52319;BME280;38258;51.148;14.068;2024-02-21T10:05:23;98610.47;;;6.68;100.00
52319;BME280;38258;51.148;14.068;2024-02-21T10:07:51;98605.25;;;6.67;100.00
52319;BME280;38258;51.148;14.068;2024-02-21T10:10:18;98614.00;;;6.58;100.00
52319;BME280;38258;51.148;14.068;2024-02-21T10:12:50;98615.72;;;6.60;100.00
52319;BME280;38258;51.148;14.068;2024-02-21T10:15:20;98611.34;;;6.64;100.00
52319;BME280;38258;51.148;14.068;2024-02-21T10:17:48;98620.81;;;6.71;100.00
52319;BME280;38258;51.148;14.068;2024-02-21T10:20:15;98623.47;;;6.68;100.00
52319;BME280;38258;51.148;14.068;2024-02-21T10:22:43;98615.47;;;6.85;100.00
52319;BME280;38258;51.148;14.068;2024-02-21T10:25:10;98619.88;;;6.78;100.00
52319;BME280;38258;51.148;14.068;2024-02-21T10:27:37;98609.59;;;6.69;100.00
52319;BME280;38258;51.148;14.068;2024-02-21T10:30:05;98614.66;;;6.78;100.00
52319;BME280;38258;51.148;14.068;2024-02-21T10:32:32;98615.66;;;6.68;100.00
52319;BME280;38258;51.148;14.068;2024-02-21T10:35:02;98612.94;;;6.79;100.00
52319;BME280;38258;51.148;14.068;2024-02-21T10:37:30;98617.19;;;6.89;100.00
52319;BME280;38258;51.148;14.068;2024-02-21T10:39:58;98615.63;;;6.71;100.00
52319;BME280;38258;51.148;14.068;2024-02-21T10:42:29;98619.00;;;6.83;100.00
52319;BME280;38258;51.148;14.068;2024-02-21T10:45:00;98614.53;;;6.94;100.00
52319;BME280;38258;51.148;14.068;2024-02-21T10:47:31;98604.88;;;7.05;100.00
52319;BME280;38258;51.148;14.068;2024-02-21T10:50:03;98602.19;;;7.13;100.00
52319;BME280;38258;51.148;14.068;2024-02-21T10:52:40;98589.94;;;7.26;100.00
52319;BME280;38258;51.148;14.068;2024-02-21T10:55:18;98582.13;;;7.23;100.00
52319;BME280;38258;51.148;14.068;2024-02-21T10:57:46;98588.50;;;6.97;100.00
52319;BME280;38258;51.148;14.068;2024-02-21T11:00:14;98584.19;;;6.93;100.00
52319;BME280;38258;51.148;14.068;2024-02-21T11:02:44;98571.22;;;6.91;100.00
52319;BME280;38258;51.148;14.068;2024-02-21T11:05:11;98565.81;;;7.08;100.00
52319;BME280;38258;51.148;14.068;2024-02-21T11:07:39;98563.31;;;7.02;100.00
52319;BME280;38258;51.148;14.068;2024-02-21T11:10:22;98547.47;;;7.21;100.00
52319;BME280;38258;51.148;14.068;2024-02-21T11:12:52;98552.63;;;7.26;100.00
52319;BME280;38258;51.148;14.068;2024-02-21T11:15:19;98552.81;;;7.12;100.00
52319;BME280;38258;51.148;14.068;2024-02-21T11:17:53;98539.91;;;7.01;100.00
52319;BME280;38258;51.148;14.068;2024-02-21T11:20:31;98542.41;;;7.10;100.00
52319;BME280;38258;51.148;14.068;2024-02-21T11:22:59;98542.19;;;7.29;100.00
52319;BME280;38258;51.148;14.068;2024-02-21T11:25:27;98536.91;;;7.35;100.00
52319;BME280;38258;51.148;14.068;2024-02-21T11:28:00;98534.16;;;7.47;100.00
52319;BME280;38258;51.148;14.068;2024-02-21T11:30:27;98535.38;;;7.17;100.00
52319;BME280;38258;51.148;14.068;2024-02-21T11:33:00;98520.91;;;7.63;100.00
52319;BME280;38258;51.148;14.068;2024-02-21T11:35:31;98515.88;;;7.50;100.00
52319;BME280;38258;51.148;14.068;2024-02-21T11:38:07;98516.34;;;7.79;100.00
52319;BME280;38258;51.148;14.068;2024-02-21T11:40:38;98517.66;;;7.47;100.00
52319;BME280;38258;51.148;14.068;2024-02-21T11:43:05;98505.69;;;7.35;100.00
52319;BME280;38258;51.148;14.068;2024-02-21T11:45:32;98511.47;;;7.56;100.00
52319;BME280;38258;51.148;14.068;2024-02-21T11:47:59;98503.59;;;7.60;100.00
52319;BME280;38258;51.148;14.068;2024-02-21T11:50:29;98497.06;;;7.31;100.00
52319;BME280;38258;51.148;14.068;2024-02-21T11:52:56;98497.50;;;7.61;100.00
52319;BME280;38258;51.148;14.068;2024-02-21T11:55:23;98501.81;;;7.64;100.00
52319;BME280;38258;51.148;14.068;2024-02-21T11:57:51;98493.06;;;7.70;100.00
52319;BME280;38258;51.148;14.068;2024-02-21T12:00:19;98498.41;;;7.59;100.00
52319;BME280;38258;51.148;14.068;2024-02-21T12:02:46;98499.44;;;7.45;100.00
52319;BME280;38258;51.148;14.068;2024-02-21T12:05:13;98496.44;;;7.75;100.00
52319;BME280;38258;51.148;14.068;2024-02-21T12:07:41;98492.28;;;7.61;100.00
52319;BME280;38258;51.148;14.068;2024-02-21T12:10:08;98485.25;;;7.67;100.00
52319;BME280;38258;51.148;14.068;2024-02-21T12:12:36;98479.38;;;7.55;100.00
52319;BME280;38258;51.148;14.068;2024-02-21T12:15:05;98471.47;;;7.63;100.00
52319;BME280;38258;51.148;14.068;2024-02-21T12:17:32;98465.31;;;7.66;100.00
52319;BME280;38258;51.148;14.068;2024-02-21T12:19:59;98460.88;;;7.74;100.00
52319;BME280;38258;51.148;14.068;2024-02-21T12:22:26;98457.63;;;7.58;100.00
52319;BME280;38258;51.148;14.068;2024-02-21T12:24:53;98449.38;;;7.86;100.00
52319;BME280;38258;51.148;14.068;2024-02-21T12:27:20;98448.81;;;7.68;100.00
52319;BME280;38258;51.148;14.068;2024-02-21T12:29:47;98447.03;;;7.72;100.00
52319;BME280;38258;51.148;14.068;2024-02-21T12:32:15;98440.56;;;7.95;100.00
52319;BME280;38258;51.148;14.068;2024-02-21T12:34:42;98438.09;;;7.87;100.00
52319;BME280;38258;51.148;14.068;2024-02-21T12:37:10;98439.16;;;7.75;100.00
52319;BME280;38258;51.148;14.068;2024-02-21T12:39:38;98434.38;;;8.03;100.00
52319;BME280;38258;51.148;14.068;2024-02-21T12:42:04;98428.09;;;7.60;100.00
52319;BME280;38258;51.148;14.068;2024-02-21T12:44:31;98416.34;;;7.89;100.00
52319;BME280;38258;51.148;14.068;2024-02-21T12:46:59;98413.00;;;7.83;100.00
52319;BME280;38258;51.148;14.068;2024-02-21T12:49:27;98399.00;;;7.90;100.00
52319;BME280;38258;51.148;14.068;2024-02-21T12:51:55;98393.59;;;7.99;100.00
52319;BME280;38258;51.148;14.068;2024-02-21T12:54:21;98396.34;;;7.91;100.00